Hollis Crossroads, Alabama
Current Conditions -  °F | °C
As of 10:53 AM on Sunday 21 Dec 2014 (Local Time) from KANB Reporting Station
Broken Clouds Broken Clouds  
Wind Chill: 53°   Ceiling: 1300
Heat Index: 53°   Visibility: 9mi
Dew Point: 45°   Wind: 8mph
Humidity: 74%   Direction: 60°ENE
Pressure: 30.16"   Gusts: NA
Location:  33.6126°N, 85.6035°W
Report Text: KANB 211653Z AUTO 06007KT 9SM BKN013 BKN031 12/07 A3016 RMK AO2 SLP219 T01170072
Loading
Personal Weather Stations






























Interactive Weather Map New forecast layout! Learn more

10-Day Weather Forecast

Advertisements
Track Severe Weather on mobile